Time;durP1;ratioP1;P1;durP2;ratioP2;P2;SDS_P1;SDS_P2;PMS_P1;PMS_P2;Temp;Humidity;BMP_temperature;BMP_pressure;BME280_temperature;BME280_humidity;BME280_pressure;Samples;Min_cycle;Max_cycle;Signal;HPM_P1;HPM_P2
2022/11/20 00:01:35;;;;;;;17.38;7.95;;;;;;;9.11;67.06;96660.31;4849489;29;20192;-76
2022/11/20 00:04:00;;;;;;;13.98;7.47;;;;;;;9.14;67.35;96662.44;4851969;29;20208;-76
2022/11/20 00:06:28;;;;;;;18.20;9.10;;;;;;;9.13;67.70;96661.66;4863403;28;20269;-75
2022/11/20 00:08:56;;;;;;;19.05;9.15;;;;;;;9.18;68.20;96664.28;4849856;28;20291;-76
2022/11/20 00:11:23;;;;;;;16.70;9.07;;;;;;;9.26;67.96;96651.88;4852092;29;20600;-76
2022/11/20 00:13:51;;;;;;;15.38;8.68;;;;;;;9.33;67.93;96660.25;4848913;29;20484;-76
2022/11/20 00:16:19;;;;;;;15.75;9.05;;;;;;;9.41;68.07;96662.38;4865577;28;20212;-76
2022/11/20 00:18:44;;;;;;;14.77;9.02;;;;;;;9.51;67.54;96654.66;4850494;29;20197;-76
2022/11/20 00:21:12;;;;;;;15.57;8.80;;;;;;;9.52;67.44;96652.84;4850157;29;20639;-76
2022/11/20 00:23:38;;;;;;;17.63;9.43;;;;;;;9.53;67.49;96652.59;4833923;29;20526;-77
2022/11/20 00:26:04;;;;;;;17.15;9.00;;;;;;;9.56;67.83;96657.28;4849239;29;20158;-75
2022/11/20 00:28:30;;;;;;;16.23;8.70;;;;;;;9.59;67.46;96655.22;4866423;28;20278;-76
2022/11/20 00:31:02;;;;;;;19.58;10.40;;;;;;;9.55;68.24;96657.53;4864980;28;20324;-75
2022/11/20 00:33:28;;;;;;;14.25;8.50;;;;;;;9.65;67.97;96667.22;4865047;28;20298;-76
2022/11/20 00:36:02;;;;;;;16.92;9.80;;;;;;;9.77;67.50;96660.00;4848860;29;20298;-76
2022/11/20 00:38:27;;;;;;;18.02;9.35;;;;;;;9.71;67.79;96659.19;4870708;28;20338;-77
2022/11/20 00:40:57;;;;;;;18.92;9.43;;;;;;;9.72;68.27;96665.19;4847912;29;20102;-76
2022/11/20 00:43:22;;;;;;;17.30;9.55;;;;;;;9.78;67.95;96666.75;4875849;28;20260;-76
2022/11/20 00:45:48;;;;;;;18.00;9.00;;;;;;;9.85;67.84;96659.53;4870033;28;20722;-76
2022/11/20 00:48:13;;;;;;;14.85;9.40;;;;;;;9.86;68.27;96663.69;4815650;29;20205;-76
2022/11/20 00:50:42;;;;;;;15.80;9.13;;;;;;;9.98;67.22;96660.91;4869923;28;20205;-76
2022/11/20 00:53:07;;;;;;;17.55;9.15;;;;;;;9.90;67.33;96656.97;4855251;28;20184;-75
2022/11/20 00:55:32;;;;;;;17.38;9.50;;;;;;;9.89;67.57;96647.59;4873294;28;20203;-76
2022/11/20 00:57:58;;;;;;;17.15;9.27;;;;;;;9.93;67.63;96658.28;4871067;28;20126;-77
2022/11/20 01:00:23;;;;;;;15.77;8.88;;;;;;;9.72;68.41;96662.59;4868221;28;20700;-76
2022/11/20 01:02:48;;;;;;;22.55;10.40;;;;;;;9.82;68.05;96652.25;4876631;28;20607;-76
2022/11/20 01:05:14;;;;;;;16.92;10.15;;;;;;;9.89;67.95;96657.22;4850052;29;20271;-76
2022/11/20 01:07:39;;;;;;;15.82;9.00;;;;;;;9.97;67.45;96653.34;4877752;28;20226;-76
2022/11/20 01:10:05;;;;;;;15.65;8.63;;;;;;;9.98;67.52;96654.91;4875557;28;20642;-76
2022/11/20 01:12:30;;;;;;;14.45;8.13;;;;;;;10.01;67.84;96650.00;4866968;28;20259;-76
2022/11/20 01:14:55;;;;;;;17.55;8.48;;;;;;;10.01;67.92;96659.63;4879123;28;20284;-76
2022/11/20 01:17:21;;;;;;;14.30;8.40;;;;;;;10.09;67.41;96656.50;4875039;28;20618;-76
2022/11/20 01:19:49;;;;;;;15.57;8.45;;;;;;;10.08;67.64;96650.53;4879199;28;20360;-76
2022/11/20 01:22:14;;;;;;;14.93;8.38;;;;;;;10.10;67.68;96652.88;4876517;28;20252;-76
2022/11/20 01:24:40;;;;;;;14.35;8.15;;;;;;;10.10;67.81;96652.88;4882464;28;20755;-76
2022/11/20 01:27:05;;;;;;;15.98;7.93;;;;;;;10.11;67.00;96650.03;4859700;29;20358;-76
2022/11/20 01:29:30;;;;;;;14.00;8.30;;;;;;;10.05;68.04;96651.03;4870027;28;20653;-77
2022/11/20 01:31:56;;;;;;;15.95;8.20;;;;;;;10.10;67.45;96647.69;4878830;28;20606;-77
2022/11/20 01:34:22;;;;;;;15.73;8.27;;;;;;;9.91;68.34;96640.31;4876780;28;20268;-76
2022/11/20 01:36:48;;;;;;;15.27;8.25;;;;;;;9.72;68.48;96645.16;4854862;28;20206;-77
2022/11/20 01:39:22;;;;;;;15.18;7.53;;;;;;;10.23;67.56;96646.44;4874715;28;20219;-76
2022/11/20 01:44:45;;;;;;;;;;;;;;;10.40;66.92;96643.66;4855908;29;20285;-76
2022/11/20 01:47:14;;;;;;;14.25;7.30;;;;;;;10.14;68.14;96638.31;4867461;28;20087;-77
2022/11/20 01:49:56;;;;;;;13.25;7.03;;;;;;;10.28;67.28;96639.44;4870345;28;20199;-77
2022/11/20 01:52:43;;;;;;;11.50;7.18;;;;;;;10.39;67.02;96642.09;4870274;28;20271;-77
2022/11/20 01:55:20;;;;;;;10.32;6.30;;;;;;;10.27;67.74;96635.25;4834348;29;20177;-76
2022/11/20 01:57:45;;;;;;;11.55;6.30;;;;;;;10.17;67.50;96632.63;4844258;29;20308;-76
2022/11/20 02:00:14;;;;;;;12.23;6.68;;;;;;;10.16;68.06;96635.47;4847416;29;20722;-77
2022/11/20 02:02:42;;;;;;;11.10;6.72;;;;;;;10.25;67.73;96644.38;4851478;28;20193;-76
2022/11/20 02:05:23;;;;;;;13.20;6.95;;;;;;;10.43;67.50;96635.34;4843869;29;20289;-77
2022/11/20 02:07:48;;;;;;;10.63;6.40;;;;;;;10.38;67.31;96637.94;4863581;28;20720;-76
2022/11/20 02:10:14;;;;;;;9.68;5.85;;;;;;;10.45;67.21;96643.66;4855453;29;20329;-77
2022/11/20 02:15:23;;;;;;;12.68;7.45;;;;;;;10.37;67.29;96637.16;4851419;29;20342;-77
2022/11/20 02:17:49;;;;;;;13.70;7.20;;;;;;;10.36;67.04;96640.00;4884556;28;20279;-76
2022/11/20 02:20:14;;;;;;;13.70;7.10;;;;;;;10.36;67.07;96638.19;4881572;28;20276;-76
2022/11/20 02:23:21;;;;;;;10.85;6.95;;;;;;;10.67;66.26;96646.84;4879392;28;20219;-76
2022/11/20 02:25:47;;;;;;;12.10;7.47;;;;;;;10.52;66.92;96640.81;4841726;29;20257;-77
2022/11/20 02:28:13;;;;;;;12.13;7.90;;;;;;;10.51;66.65;96642.66;4857919;29;20299;-76
2022/11/20 02:30:38;;;;;;;13.40;8.10;;;;;;;10.46;67.02;96634.84;4861511;29;20315;-77
2022/11/20 02:33:03;;;;;;;14.68;8.52;;;;;;;10.49;66.52;96634.31;4877226;28;20216;-77
2022/11/20 02:35:28;;;;;;;15.23;8.52;;;;;;;10.49;66.54;96640.31;4869366;28;20173;-77
2022/11/20 02:37:56;;;;;;;15.50;8.18;;;;;;;10.53;67.00;96626.78;4876928;28;20282;-76
2022/11/20 02:40:21;;;;;;;13.57;7.85;;;;;;;10.24;67.69;96629.78;4880924;28;20271;-77
2022/11/20 02:42:47;;;;;;;14.10;8.38;;;;;;;10.30;67.40;96628.78;4879533;28;20719;-76
2022/11/20 02:45:12;;;;;;;12.80;7.85;;;;;;;10.30;67.46;96626.19;4871257;28;20176;-77
2022/11/20 02:47:37;;;;;;;13.48;8.13;;;;;;;10.44;67.62;96634.31;4858770;29;20645;-77
2022/11/20 02:50:04;;;;;;;12.13;7.80;;;;;;;10.39;67.30;96635.06;4852923;28;20426;-76
2022/11/20 02:52:30;;;;;;;12.32;7.13;;;;;;;10.48;67.60;96627.53;4855504;29;20287;-76
2022/11/20 02:54:55;;;;;;;13.38;8.00;;;;;;;10.41;67.17;96630.38;4881910;28;20650;-76
2022/11/20 02:57:21;;;;;;;11.65;7.95;;;;;;;10.48;67.55;96632.75;4862059;29;20207;-76
2022/11/20 02:59:46;;;;;;;14.13;8.13;;;;;;;10.37;67.17;96626.75;4862518;29;20203;-76
2022/11/20 03:02:11;;;;;;;15.82;8.63;;;;;;;10.40;67.14;96621.03;4886036;28;20206;-76
2022/11/20 03:04:40;;;;;;;12.68;7.22;;;;;;;10.44;67.13;96627.28;4879533;28;20265;-77
2022/11/20 03:07:05;;;;;;;12.50;7.28;;;;;;;10.47;67.17;96633.81;4879909;28;20292;-76
2022/11/20 03:09:31;;;;;;;13.45;7.40;;;;;;;10.48;67.34;96632.75;4881092;28;20328;-76
2022/11/20 03:11:56;;;;;;;11.52;7.55;;;;;;;10.43;66.97;96630.91;4885693;28;20191;-77
2022/11/20 03:14:21;;;;;;;11.93;7.20;;;;;;;10.44;67.47;96634.31;4881133;28;20230;-77
2022/11/20 03:16:47;;;;;;;13.02;7.82;;;;;;;10.55;66.92;96632.50;4884533;28;20203;-76
2022/11/20 03:19:12;;;;;;;12.73;7.45;;;;;;;10.51;67.23;96631.47;4885394;28;20250;-76
2022/11/20 03:21:38;;;;;;;13.38;7.72;;;;;;;10.50;67.07;96633.28;4885237;28;20263;-76
2022/11/20 03:24:03;;;;;;;12.88;8.05;;;;;;;10.50;66.98;96635.88;4885815;28;20239;-77
2022/11/20 03:26:31;;;;;;;13.68;7.53;;;;;;;10.43;67.55;96624.94;4885218;28;20218;-76
2022/11/20 03:29:00;;;;;;;12.45;6.97;;;;;;;10.49;67.24;96626.53;4877547;28;20620;-76
2022/11/20 03:31:27;;;;;;;11.48;6.63;;;;;;;10.54;67.04;96626.53;4870313;28;20203;-76
2022/11/20 03:33:53;;;;;;;10.55;7.00;;;;;;;10.60;67.14;96629.91;4857332;29;20207;-76
2022/11/20 03:36:20;;;;;;;12.27;7.30;;;;;;;10.47;67.61;96626.00;4863504;29;20200;-76
2022/11/20 03:38:46;;;;;;;11.70;6.80;;;;;;;10.43;67.53;96630.13;4848370;28;20585;-76
2022/11/20 03:41:20;;;;;;;10.18;6.95;;;;;;;10.54;67.37;96633.53;4884120;28;20204;-77
2022/11/20 03:43:53;;;;;;;11.43;7.28;;;;;;;10.66;66.72;96632.28;4851916;29;20195;-77
2022/11/20 03:46:19;;;;;;;9.90;6.00;;;;;;;10.53;66.88;96624.97;4857272;28;20222;-77
2022/11/20 03:48:44;;;;;;;10.57;6.68;;;;;;;10.55;67.08;96619.50;4854419;29;20295;-77
2022/11/20 03:51:14;;;;;;;10.60;7.00;;;;;;;10.65;66.77;96628.09;4869373;28;20623;-77
2022/11/20 03:53:40;;;;;;;11.32;6.45;;;;;;;10.48;66.80;96617.13;4869362;28;20653;-77
2022/11/20 03:56:09;;;;;;;11.70;7.10;;;;;;;10.43;67.49;96619.72;4863520;29;20629;-77
2022/11/20 03:58:37;;;;;;;12.18;6.90;;;;;;;10.47;67.34;96624.16;4879074;28;20204;-77
2022/11/20 04:01:19;;;;;;;12.63;6.50;;;;;;;10.60;67.22;96620.28;4881122;28;20198;-77
2022/11/20 04:03:45;;;;;;;10.75;6.93;;;;;;;10.48;67.48;96622.34;4864625;29;20336;-77
2022/11/20 04:06:17;;;;;;;10.43;6.30;;;;;;;10.60;67.26;96622.09;4862180;29;20359;-77
2022/11/20 04:08:43;;;;;;;9.95;6.53;;;;;;;10.59;66.68;96623.94;4858091;29;20215;-76
2022/11/20 04:11:16;;;;;;;9.32;5.68;;;;;;;10.56;67.08;96627.03;4880306;28;20311;-76
2022/11/20 04:13:45;;;;;;;9.98;5.60;;;;;;;10.58;66.91;96627.56;4880300;28;20204;-76
2022/11/20 04:16:10;;;;;;;9.05;5.95;;;;;;;10.51;67.12;96628.88;4861854;29;20211;-77
2022/11/20 04:18:36;;;;;;;10.90;5.82;;;;;;;10.58;67.05;96627.56;4880467;28;20518;-76
2022/11/20 04:21:02;;;;;;;10.15;6.40;;;;;;;10.59;66.54;96633.53;4862605;29;20390;-77
2022/11/20 04:23:27;;;;;;;9.85;6.10;;;;;;;10.52;67.08;96627.81;4878342;28;20295;-77
2022/11/20 04:25:53;;;;;;;9.07;5.38;;;;;;;10.56;66.64;96629.66;4877634;28;20725;-76
2022/11/20 04:28:19;;;;;;;9.65;5.35;;;;;;;10.60;66.88;96635.91;4882558;28;20342;-77
2022/11/20 04:30:44;;;;;;;8.13;5.65;;;;;;;10.57;66.79;96626.00;4862604;29;20204;-77
2022/11/20 04:33:10;;;;;;;9.30;5.93;;;;;;;10.46;67.01;96624.41;4880694;28;20331;-77
2022/11/20 04:35:36;;;;;;;8.32;5.57;;;;;;;10.52;67.46;96627.81;4846260;29;20208;-77
2022/11/20 04:38:01;;;;;;;8.32;5.55;;;;;;;10.48;67.60;96617.13;4881363;28;20236;-77
2022/11/20 04:40:27;;;;;;;9.23;5.85;;;;;;;10.51;67.73;96621.84;4878174;28;20345;-77
2022/11/20 04:42:53;;;;;;;8.95;5.68;;;;;;;10.42;67.66;96615.56;4873113;28;20657;-77
2022/11/20 04:45:19;;;;;;;10.18;5.85;;;;;;;10.47;67.45;96621.56;4870622;28;20203;-77
2022/11/20 04:47:44;;;;;;;8.38;5.38;;;;;;;10.44;67.26;96616.09;4875035;28;20196;-77
2022/11/20 04:50:10;;;;;;;8.43;5.10;;;;;;;10.49;67.21;96614.28;4873907;28;20200;-77
2022/11/20 04:52:35;;;;;;;9.95;4.95;;;;;;;10.33;67.93;96622.31;4883858;28;20274;-77
2022/11/20 04:55:00;;;;;;;8.45;5.15;;;;;;;10.46;67.38;96624.41;4877596;28;20648;-77
2022/11/20 04:57:26;;;;;;;8.23;5.03;;;;;;;10.51;67.31;96615.84;4878362;28;20232;-77
2022/11/20 04:59:51;;;;;;;9.02;5.22;;;;;;;10.46;67.04;96620.00;4860639;29;20218;-77
2022/11/20 05:02:17;;;;;;;8.65;5.30;;;;;;;10.47;67.45;96626.00;4869629;28;20626;-77
2022/11/20 05:04:42;;;;;;;7.72;5.00;;;;;;;10.41;67.52;96619.19;4882124;28;20614;-77
2022/11/20 05:07:07;;;;;;;7.43;4.38;;;;;;;10.42;66.95;96613.75;4879690;28;20286;-77
2022/11/20 05:09:33;;;;;;;4.82;3.60;;;;;;;10.50;67.05;96615.06;4876873;28;20267;-77
2022/11/20 05:11:58;;;;;;;7.00;4.20;;;;;;;10.55;67.02;96622.88;4877336;28;20278;-77
2022/11/20 05:14:23;;;;;;;5.57;3.72;;;;;;;10.47;66.88;96618.19;4878297;28;20721;-77
2022/11/20 05:16:49;;;;;;;6.13;3.88;;;;;;;10.45;67.35;96625.44;4881701;28;20287;-77
2022/11/20 05:19:14;;;;;;;5.47;3.63;;;;;;;10.41;66.81;96621.81;4861899;28;20714;-77
2022/11/20 05:21:39;;;;;;;5.93;4.00;;;;;;;10.48;67.25;96611.94;4881145;28;20712;-77
2022/11/20 05:24:05;;;;;;;4.75;3.65;;;;;;;10.51;67.09;96619.22;4883239;28;20248;-77
2022/11/20 05:26:31;;;;;;;6.13;3.50;;;;;;;10.51;67.21;96614.03;4883565;28;20274;-77
2022/11/20 05:28:56;;;;;;;5.75;3.70;;;;;;;10.47;67.48;96621.56;4882686;28;20223;-77
2022/11/20 05:31:23;;;;;;;6.90;4.07;;;;;;;10.47;67.05;96618.97;4882494;28;20551;-77
2022/11/20 05:33:49;;;;;;;4.22;3.00;;;;;;;10.48;67.31;96606.72;4856652;28;20139;-77
2022/11/20 05:36:15;;;;;;;6.28;3.65;;;;;;;10.54;67.09;96616.13;4879476;28;20223;-77
2022/11/20 05:38:40;;;;;;;6.30;3.05;;;;;;;10.45;67.23;96618.44;4846076;28;20275;-77
2022/11/20 05:41:17;;;;;;;5.38;3.30;;;;;;;10.63;67.39;96613.78;4857254;28;20212;-77
2022/11/20 05:43:44;;;;;;;4.50;3.30;;;;;;;10.54;66.90;96612.72;4852788;29;20721;-77
2022/11/20 05:46:11;;;;;;;4.78;3.20;;;;;;;10.65;67.10;96611.69;4873513;28;20185;-77
2022/11/20 05:48:38;;;;;;;6.80;3.70;;;;;;;10.61;66.73;96610.66;4857967;28;20379;-77
2022/11/20 05:51:05;;;;;;;6.68;3.85;;;;;;;10.49;67.37;96608.28;4884052;28;20772;-77
2022/11/20 05:53:32;;;;;;;6.20;3.70;;;;;;;10.49;67.24;96611.69;4879837;28;20216;-77
2022/11/20 05:56:03;;;;;;;4.68;3.70;;;;;;;10.61;67.24;96613.28;4883829;28;20281;-77
2022/11/20 05:58:29;;;;;;;4.97;3.42;;;;;;;10.46;67.67;96616.63;4861568;29;20745;-77
2022/11/20 06:00:54;;;;;;;6.95;4.15;;;;;;;10.39;67.20;96605.66;4874058;28;20277;-77
2022/11/20 06:03:20;;;;;;;4.80;3.63;;;;;;;10.52;67.38;96613.00;4880636;28;20223;-77
2022/11/20 06:05:48;;;;;;;5.85;3.75;;;;;;;10.51;67.28;96615.84;4874623;28;20200;-77
2022/11/20 06:08:13;;;;;;;5.18;3.72;;;;;;;10.60;67.24;96609.88;4873892;28;20212;-77
2022/11/20 06:10:38;;;;;;;5.40;3.58;;;;;;;10.60;66.75;96611.69;4866583;29;20219;-77
2022/11/20 06:13:04;;;;;;;5.13;3.08;;;;;;;10.55;67.05;96615.06;4867274;29;20222;-77
2022/11/20 06:15:29;;;;;;;5.82;3.38;;;;;;;10.55;67.16;96616.88;4863140;29;20166;-77
2022/11/20 06:17:55;;;;;;;4.65;3.15;;;;;;;10.55;67.21;96620.25;4864449;29;20195;-78
2022/11/20 06:20:21;;;;;;;3.75;2.38;;;;;;;10.51;67.43;96616.63;4861450;29;20104;-77
2022/11/20 06:22:47;;;;;;;4.35;2.67;;;;;;;10.54;66.95;96621.31;4858753;29;20188;-77
2022/11/20 06:25:12;;;;;;;3.63;2.22;;;;;;;10.53;67.03;96622.34;4863627;29;20223;-77
2022/11/20 06:27:38;;;;;;;3.50;2.60;;;;;;;10.55;66.95;96611.69;4867741;29;20282;-77
2022/11/20 06:30:04;;;;;;;3.47;2.67;;;;;;;10.49;67.07;96613.50;4877334;28;20610;-77
2022/11/20 06:32:29;;;;;;;3.78;2.50;;;;;;;10.52;67.27;96601.78;4874997;28;20277;-77
2022/11/20 06:34:54;;;;;;;2.80;2.10;;;;;;;10.53;67.09;96609.34;4876145;28;20215;-77
2022/11/20 06:37:20;;;;;;;3.35;2.05;;;;;;;10.52;66.83;96609.59;4877399;28;20323;-77
2022/11/20 06:39:45;;;;;;;2.88;1.90;;;;;;;10.48;67.11;96607.50;4869875;28;20214;-77
2022/11/20 06:42:11;;;;;;;3.78;2.70;;;;;;;10.54;67.12;96610.91;4858439;29;20165;-77
2022/11/20 06:44:36;;;;;;;3.17;2.53;;;;;;;10.59;66.94;96610.91;4869435;28;20304;-77
2022/11/20 06:47:01;;;;;;;3.72;2.40;;;;;;;10.58;67.12;96621.59;4878988;28;20195;-77
2022/11/20 06:49:27;;;;;;;3.75;2.25;;;;;;;10.62;67.19;96625.22;4858829;29;20185;-77
2022/11/20 06:51:52;;;;;;;3.05;2.00;;;;;;;10.70;67.29;96626.56;4884529;28;20200;-77
2022/11/20 06:54:17;;;;;;;3.83;2.72;;;;;;;10.56;66.99;96627.03;4864975;28;20204;-77
2022/11/20 06:56:47;;;;;;;4.40;2.47;;;;;;;10.63;67.07;96632.00;4875206;28;20301;-77
2022/11/20 06:59:12;;;;;;;3.58;2.40;;;;;;;10.57;67.06;96631.19;4870535;29;20203;-77
2022/11/20 07:01:37;;;;;;;3.13;1.95;;;;;;;10.54;67.12;96629.13;4881029;28;20108;-77
2022/11/20 07:04:03;;;;;;;3.67;2.65;;;;;;;10.54;66.96;96631.75;4885486;28;20207;-77
2022/11/20 07:06:28;;;;;;;3.08;2.33;;;;;;;10.54;66.81;96636.94;4885988;28;20200;-77
2022/11/20 07:08:54;;;;;;;3.30;2.05;;;;;;;10.57;67.25;96644.22;4885242;28;20868;-77
2022/11/20 07:11:19;;;;;;;4.97;2.20;;;;;;;10.52;67.05;96633.81;4885993;28;20194;-77
2022/11/20 07:13:44;;;;;;;3.85;2.08;;;;;;;10.45;67.20;96638.47;4881563;28;20339;-77
2022/11/20 07:16:10;;;;;;;3.00;1.77;;;;;;;10.53;67.05;96640.56;4868886;29;20194;-77
2022/11/20 07:18:36;;;;;;;2.53;1.92;;;;;;;10.55;67.05;96641.09;4868380;28;20207;-77
2022/11/20 07:21:02;;;;;;;2.95;1.88;;;;;;;10.55;66.81;96643.69;4885389;28;20719;-77
2022/11/20 07:23:28;;;;;;;2.78;1.98;;;;;;;10.51;67.41;96649.69;4885624;28;20262;-77
2022/11/20 07:25:53;;;;;;;2.60;1.98;;;;;;;10.57;67.28;96651.25;4885621;28;20196;-77
2022/11/20 07:28:19;;;;;;;3.50;2.53;;;;;;;10.52;67.17;96646.84;4883023;28;20629;-77
2022/11/20 07:30:52;;;;;;;3.47;2.33;;;;;;;10.67;67.02;96639.03;4863337;29;20685;-77
2022/11/20 07:33:18;;;;;;;4.28;2.28;;;;;;;10.57;67.43;96644.22;4879425;28;20194;-77
2022/11/20 07:35:43;;;;;;;3.22;2.25;;;;;;;10.62;67.23;96648.66;4856660;29;20231;-77
2022/11/20 07:38:08;;;;;;;3.22;2.67;;;;;;;10.64;67.35;96642.16;4881027;28;20654;-77
2022/11/20 07:40:34;;;;;;;4.57;3.40;;;;;;;10.55;67.54;96643.69;4865244;28;20637;-77
2022/11/20 07:42:59;;;;;;;5.00;3.30;;;;;;;10.62;66.86;96654.63;4877071;28;20195;-77
2022/11/20 07:45:24;;;;;;;6.32;4.43;;;;;;;10.62;67.24;96646.06;4871416;28;20184;-77
2022/11/20 07:47:50;;;;;;;6.03;3.92;;;;;;;10.62;67.32;96648.66;4874185;28;20641;-77
2022/11/20 07:50:16;;;;;;;6.20;4.57;;;;;;;10.70;67.17;96660.41;4863265;29;20654;-77
2022/11/20 07:52:44;;;;;;;7.15;4.97;;;;;;;10.73;67.12;96663.28;4857657;28;20207;-77
2022/11/20 07:55:10;;;;;;;7.45;5.10;;;;;;;10.70;67.15;96671.59;4879360;28;20380;-77
2022/11/20 07:57:35;;;;;;;8.85;6.20;;;;;;;10.73;66.61;96665.88;4861889;29;20112;-77
2022/11/20 08:00:01;;;;;;;8.35;6.20;;;;;;;10.80;67.02;96670.84;4872629;28;20637;-77
2022/11/20 08:02:26;;;;;;;9.13;5.82;;;;;;;10.87;67.00;96666.16;4873094;28;20171;-77
2022/11/20 08:04:51;;;;;;;9.98;5.97;;;;;;;10.83;66.89;96665.91;4865695;29;20211;-77
2022/11/20 08:07:17;;;;;;;9.50;5.97;;;;;;;10.81;67.11;96670.59;4873336;28;20776;-77
2022/11/20 08:09:42;;;;;;;8.50;5.68;;;;;;;10.68;66.95;96671.84;4871542;28;20215;-77
2022/11/20 08:14:52;;;;;;;8.63;5.93;;;;;;;10.85;66.61;96683.88;4868271;28;20238;-77
2022/11/20 08:17:17;;;;;;;10.80;6.03;;;;;;;10.80;66.79;96689.84;4876966;28;20234;-77
2022/11/20 08:19:42;;;;;;;8.77;5.60;;;;;;;10.84;66.50;96690.13;4864408;28;20145;-77
2022/11/20 08:22:08;;;;;;;9.50;6.20;;;;;;;10.96;66.40;96695.84;4877676;28;20173;-77
2022/11/20 08:24:33;;;;;;;8.13;6.10;;;;;;;10.96;66.10;96692.47;4876410;28;20697;-78
2022/11/20 08:26:59;;;;;;;8.73;6.07;;;;;;;10.93;66.38;96693.75;4867516;28;20216;-77
2022/11/20 08:29:25;;;;;;;8.57;5.75;;;;;;;10.89;66.96;96690.13;4855461;29;20244;-77
2022/11/20 08:31:51;;;;;;;9.60;6.57;;;;;;;10.95;66.59;96686.50;4867456;28;20277;-77
2022/11/20 08:34:16;;;;;;;9.90;6.13;;;;;;;11.05;66.43;96696.94;4879207;28;20356;-77
2022/11/20 08:36:41;;;;;;;9.50;6.20;;;;;;;11.14;66.11;96699.00;4858518;29;20665;-77
2022/11/20 08:39:07;;;;;;;10.48;6.57;;;;;;;11.01;66.80;96703.69;4873613;28;20530;-77
2022/11/20 08:41:32;;;;;;;10.07;6.30;;;;;;;10.99;66.81;96700.56;4880479;28;20667;-77
2022/11/20 08:44:04;;;;;;;8.85;6.68;;;;;;;11.03;67.06;96698.22;4860161;28;20267;-77
2022/11/20 08:46:38;;;;;;;8.98;5.88;;;;;;;11.06;67.18;96693.28;4853808;29;20256;-77
2022/11/20 08:49:09;;;;;;;9.57;6.60;;;;;;;11.18;66.63;96705.28;4858977;28;20286;-77
2022/11/20 08:51:35;;;;;;;9.77;6.63;;;;;;;11.11;66.58;96702.91;4860936;28;20276;-77
2022/11/20 08:54:00;;;;;;;8.00;5.80;;;;;;;11.15;66.75;96700.56;4870951;28;20254;-77
2022/11/20 08:56:26;;;;;;;9.55;6.13;;;;;;;11.21;66.62;96707.38;4867120;29;20290;-77
2022/11/20 08:58:52;;;;;;;9.40;6.03;;;;;;;11.20;66.32;96708.41;4875608;28;20288;-77
2022/11/20 09:01:18;;;;;;;7.22;5.40;;;;;;;11.19;66.20;96701.63;4879038;28;20169;-76
2022/11/20 09:03:44;;;;;;;8.50;5.80;;;;;;;11.16;66.22;96709.97;4881364;28;20519;-77
2022/11/20 09:06:09;;;;;;;8.98;6.22;;;;;;;11.14;66.40;96705.00;4880007;28;20290;-76
2022/11/20 09:08:35;;;;;;;8.90;6.35;;;;;;;11.13;66.37;96720.91;4883066;28;20199;-76
2022/11/20 09:11:02;;;;;;;7.43;5.20;;;;;;;11.15;66.92;96724.03;4883330;28;20589;-76
2022/11/20 09:13:28;;;;;;;7.32;5.10;;;;;;;11.06;66.66;96721.94;4867468;29;20202;-76
2022/11/20 09:15:54;;;;;;;6.32;4.82;;;;;;;11.12;65.90;96719.31;4864755;29;20293;-77
2022/11/20 09:18:20;;;;;;;7.55;5.13;;;;;;;11.15;66.28;96722.19;4868571;28;20192;-77
2022/11/20 09:20:45;;;;;;;7.07;4.82;;;;;;;11.17;65.47;96727.16;4864358;28;20236;-76
2022/11/20 09:23:10;;;;;;;6.45;4.47;;;;;;;11.03;66.08;96729.47;4879960;28;20240;-77
2022/11/20 09:25:36;;;;;;;6.40;5.38;;;;;;;11.13;66.47;96731.31;4866651;28;20279;-77
2022/11/20 09:28:01;;;;;;;6.20;4.43;;;;;;;11.04;65.75;96729.22;4851566;29;20265;-77
2022/11/20 09:30:27;;;;;;;7.00;4.88;;;;;;;11.11;65.91;96728.19;4867399;28;20166;-76
2022/11/20 09:32:52;;;;;;;6.63;4.20;;;;;;;11.21;65.68;96729.00;4867273;28;20160;-76
2022/11/20 09:35:18;;;;;;;7.10;4.68;;;;;;;11.25;65.49;96729.25;4850475;29;20173;-77
2022/11/20 09:37:44;;;;;;;6.15;5.00;;;;;;;11.17;65.70;96732.38;4850010;29;20322;-76
2022/11/20 09:40:29;;;;;;;7.20;4.95;;;;;;;11.26;65.41;96730.81;4852212;29;20283;-76
2022/11/20 09:43:03;;;;;;;7.90;5.50;;;;;;;10.86;67.39;96729.69;4850239;29;20717;-76
2022/11/20 09:46:07;;;;;;;8.43;5.60;;;;;;;11.12;66.17;96735.75;4836956;28;20720;-76
2022/11/20 09:48:48;;;;;;;5.43;4.20;;;;;;;10.97;66.47;96731.31;4867628;28;20646;-78
2022/11/20 09:51:27;;;;;;;5.93;3.83;;;;;;;10.96;66.85;96732.31;4882551;28;20375;-76
2022/11/20 09:54:01;;;;;;;5.22;4.28;;;;;;;11.01;66.09;96734.16;4878481;28;20215;-76
2022/11/20 09:56:28;;;;;;;5.78;3.47;;;;;;;10.84;66.17;96723.97;4861678;28;20294;-77
2022/11/20 09:58:59;;;;;;;5.15;4.13;;;;;;;10.83;67.30;96733.59;4876726;28;20935;-77
2022/11/20 10:01:27;;;;;;;5.43;3.58;;;;;;;10.67;67.29;96731.97;4856964;29;20654;-77
2022/11/20 10:03:58;;;;;;;5.63;4.38;;;;;;;10.95;66.66;96730.78;4858392;29;20208;-77
2022/11/20 10:06:43;;;;;;;4.38;3.03;;;;;;;11.05;66.41;96736.00;4856542;29;20210;-76
2022/11/20 10:09:12;;;;;;;5.63;3.63;;;;;;;11.16;66.41;96736.03;4849641;28;20356;-77
2022/11/20 10:11:57;;;;;;;5.25;3.63;;;;;;;11.19;65.58;96732.88;4875570;28;20732;-76
2022/11/20 10:14:38;;;;;;;5.72;3.22;;;;;;;11.22;65.15;96735.78;4866149;28;20192;-77
2022/11/20 10:17:30;;;;;;;5.45;3.85;;;;;;;11.27;65.93;96732.38;4875229;28;20644;-77
2022/11/20 10:20:34;;;;;;;7.13;3.60;;;;;;;11.35;64.88;96726.66;4861848;29;20172;-78
2022/11/20 10:23:06;;;;;;;6.05;3.67;;;;;;;11.15;65.81;96718.81;4839638;29;20202;-76
2022/11/20 10:25:40;;;;;;;8.88;4.55;;;;;;;11.20;66.30;96727.41;4827576;29;20257;-77
2022/11/20 10:28:30;;;;;;;6.97;4.05;;;;;;;11.36;65.91;96720.41;4846868;29;20684;-76
2022/11/20 10:31:06;;;;;;;6.25;3.85;;;;;;;11.17;66.86;96716.72;4866264;28;20188;-76
2022/11/20 10:33:36;;;;;;;6.50;3.78;;;;;;;11.36;66.04;96710.00;4854553;29;20283;-76
2022/11/20 10:36:07;;;;;;;5.60;3.92;;;;;;;11.39;65.20;96716.50;4880989;28;20371;-77
2022/11/20 10:38:40;;;;;;;6.20;4.18;;;;;;;11.54;65.47;96706.06;4879154;28;20246;-77
2022/11/20 10:41:24;;;;;;;5.00;3.75;;;;;;;11.40;65.47;96703.19;4857818;29;20286;-77
2022/11/20 10:43:59;;;;;;;5.33;3.87;;;;;;;11.66;65.03;96703.19;4849045;29;20298;-77
2022/11/20 10:46:25;;;;;;;7.40;3.15;;;;;;;11.60;64.75;96702.41;4861523;28;20602;-76
2022/11/20 10:48:51;;;;;;;6.97;4.68;;;;;;;11.34;63.43;96691.19;4878668;28;20178;-76
2022/11/20 10:51:44;;;;;;;6.65;3.28;;;;;;;11.72;63.62;96702.16;4881488;28;20230;-77
2022/11/20 10:54:31;;;;;;;5.30;2.58;;;;;;;11.60;63.90;96702.41;4882739;28;20334;-77
2022/11/20 10:57:06;;;;;;;3.42;2.38;;;;;;;11.41;64.00;96694.34;4862993;29;20634;-77
2022/11/20 10:59:55;;;;;;;5.18;2.63;;;;;;;11.21;63.17;96683.91;4879849;28;20196;-78
2022/11/20 11:02:33;;;;;;;4.15;2.85;;;;;;;11.11;62.65;96696.94;4875757;28;20227;-76
2022/11/20 11:05:05;;;;;;;8.23;2.45;;;;;;;11.23;63.53;96682.59;4865769;28;20642;-78
2022/11/20 11:07:38;;;;;;;4.83;2.73;;;;;;;11.31;62.34;96693.53;4867712;28;20662;-77
2022/11/20 11:10:21;;;;;;;3.85;2.50;;;;;;;11.28;62.69;96678.44;4850921;29;20294;-77
2022/11/20 11:12:50;;;;;;;4.88;2.33;;;;;;;11.11;61.60;96682.06;4865645;28;20203;-77
2022/11/20 11:15:29;;;;;;;7.40;3.03;;;;;;;11.21;62.90;96682.09;4869409;28;20650;-78
2022/11/20 11:17:55;;;;;;;4.03;1.95;;;;;;;11.20;62.97;96685.72;4884795;28;20354;-77
2022/11/20 11:20:22;;;;;;;2.85;2.60;;;;;;;11.37;62.95;96675.03;4883747;28;20347;-76
2022/11/20 11:22:49;;;;;;;4.70;2.83;;;;;;;11.36;62.96;96672.69;4884937;28;20223;-77
2022/11/20 11:25:20;;;;;;;4.32;2.65;;;;;;;11.38;63.04;96666.19;4885179;28;20378;-77
2022/11/20 11:27:47;;;;;;;5.35;2.78;;;;;;;11.46;62.71;96661.50;4868867;28;20161;-76
2022/11/20 11:30:15;;;;;;;4.45;2.10;;;;;;;11.41;62.61;96663.06;4852518;28;20100;-77
2022/11/20 11:32:40;;;;;;;4.50;2.08;;;;;;;11.56;62.92;96664.09;4870358;28;20211;-76
2022/11/20 11:35:11;;;;;;;3.47;2.08;;;;;;;11.43;60.55;96658.38;4870027;28;20192;-77
2022/11/20 11:37:38;;;;;;;3.58;1.95;;;;;;;11.30;62.34;96652.91;4851963;29;20845;-76
2022/11/20 11:40:04;;;;;;;5.28;2.00;;;;;;;11.27;62.53;96656.78;4855200;29;20285;-76
2022/11/20 11:42:30;;;;;;;3.95;1.80;;;;;;;11.40;61.23;96655.50;4851822;29;20717;-76
2022/11/20 11:45:07;;;;;;;4.82;1.80;;;;;;;11.26;62.24;96650.03;4853547;29;20263;-77